Time;durP1;ratioP1;P1;durP2;ratioP2;P2;SDS_P1;SDS_P2;PMS_P1;PMS_P2;Temp;Humidity;BMP_temperature;BMP_pressure;BME280_temperature;BME280_humidity;BME280_pressure;Samples;Min_cycle;Max_cycle;Signal;HPM_P1;HPM_P2
2022/01/25 00:29:59;;;;;;;32.70;23.08;;;;;;;3.81;81.74;101596.91;4976524;28;20125;-63
2022/01/25 00:32:29;;;;;;;34.33;22.95;;;;;;;3.81;82.25;101591.78;4994208;28;20035;-63
2022/01/25 00:34:57;;;;;;;33.30;22.73;;;;;;;3.80;81.35;101587.44;4960675;28;20050;-63
2022/01/25 00:37:25;;;;;;;33.33;23.05;;;;;;;3.80;81.53;101593.44;4976474;28;20034;-63
2022/01/25 00:39:56;;;;;;;34.90;23.90;;;;;;;3.79;81.92;101591.66;4993921;28;20486;-63
2022/01/25 00:42:24;;;;;;;37.65;24.23;;;;;;;3.80;81.47;101590.88;4960389;28;20034;-64
2022/01/25 00:44:59;;;;;;;32.60;22.38;;;;;;;3.79;81.83;101595.91;4960344;28;20065;-63
2022/01/25 00:47:32;;;;;;;38.28;25.92;;;;;;;3.79;81.85;101591.66;4979421;28;20449;-63
2022/01/25 00:50:14;;;;;;;34.50;24.13;;;;;;;3.80;81.56;101590.00;4980787;28;20038;-62
2022/01/25 00:55:18;;;;;;;33.90;24.42;;;;;;;3.78;81.83;101587.31;4997679;28;20476;-63
2022/01/25 00:57:52;;;;;;;33.20;22.30;;;;;;;3.78;81.76;101582.19;4997634;28;20030;-63
2022/01/25 01:00:21;;;;;;;32.10;24.27;;;;;;;3.78;82.13;101583.88;4963315;28;20506;-63
2022/01/25 01:02:55;;;;;;;31.75;22.58;;;;;;;3.77;82.22;101587.22;5003522;28;20096;-63
2022/01/25 01:05:25;;;;;;;32.00;21.65;;;;;;;3.76;82.02;101594.00;4999584;28;20026;-63
2022/01/25 01:08:00;;;;;;;31.27;23.20;;;;;;;3.77;81.92;101590.66;5015800;28;20117;-63
2022/01/25 01:10:28;;;;;;;36.97;23.45;;;;;;;3.78;81.65;101596.69;5017351;28;20034;-63
2022/01/25 01:13:28;;;;;;;31.90;22.42;;;;;;;3.76;81.39;101598.25;5017028;28;20049;-63
2022/01/25 01:16:06;;;;;;;33.72;24.38;;;;;;;3.77;81.72;101593.22;5016747;28;20389;-63
2022/01/25 01:30:05;;;;;;;30.70;22.23;;;;;;;3.75;81.77;101591.34;5016589;28;20470;-64
2022/01/25 01:41:10;;;;;;;32.63;24.65;;;;;;;3.74;81.82;101592.13;5015106;28;20034;-63
2022/01/25 01:43:43;;;;;;;32.90;22.88;;;;;;;3.72;81.90;101603.97;4998681;28;20538;-62
2022/01/25 01:51:18;;;;;;;30.73;21.95;;;;;;;3.72;82.11;101606.53;5014689;28;20042;-63
2022/01/25 01:53:47;;;;;;;29.25;22.50;;;;;;;3.72;81.55;101609.09;4998885;28;20045;-62
2022/01/25 01:56:16;;;;;;;29.75;22.13;;;;;;;3.71;82.10;101610.78;5016130;28;20489;-63
2022/01/25 01:58:41;;;;;;;33.53;23.38;;;;;;;3.70;81.88;101621.81;5014870;28;20500;-63
2022/01/25 02:01:18;;;;;;;28.98;21.80;;;;;;;3.71;81.48;101615.91;5016034;28;20132;-63
2022/01/25 02:03:44;;;;;;;29.00;21.48;;;;;;;3.70;81.98;101615.78;4962505;28;20581;-63
2022/01/25 02:06:10;;;;;;;30.45;22.02;;;;;;;3.69;82.34;101614.00;4996224;28;20177;-63
2022/01/25 02:08:38;;;;;;;27.30;21.67;;;;;;;3.69;81.32;101614.91;4978818;28;20046;-63
2022/01/25 02:11:05;;;;;;;28.83;21.80;;;;;;;3.70;81.68;101615.78;4962948;28;20046;-63
2022/01/25 02:13:31;;;;;;;27.02;20.98;;;;;;;3.69;81.93;101620.03;4996181;28;20394;-63
2022/01/25 02:15:59;;;;;;;25.85;19.85;;;;;;;3.70;81.88;101614.13;4962839;28;20066;-63
2022/01/25 02:23:45;;;;;;;25.70;20.48;;;;;;;3.67;81.51;101601.09;4995792;28;20121;-63
2022/01/25 02:26:14;;;;;;;;;;;;;;;3.66;81.75;101600.19;4963105;28;20038;-62
2022/01/25 02:28:44;;;;;;;26.40;19.92;;;;;;;3.65;81.48;101594.97;4996026;28;19917;-63
2022/01/25 02:31:13;;;;;;;29.27;21.27;;;;;;;3.66;81.47;101605.31;4962189;28;20121;-63
2022/01/25 02:33:40;;;;;;;25.80;21.08;;;;;;;3.66;82.02;101601.88;4994667;28;20121;-63
2022/01/25 02:36:11;;;;;;;28.02;21.48;;;;;;;3.64;82.23;101604.34;4996546;28;20542;-63
2022/01/25 02:38:38;;;;;;;28.13;21.77;;;;;;;3.65;82.02;101608.69;4995783;28;20038;-63
2022/01/25 02:41:07;;;;;;;26.02;19.70;;;;;;;3.66;81.83;101596.75;4962162;28;20038;-63
2022/01/25 02:43:36;;;;;;;25.30;20.40;;;;;;;3.66;81.90;101601.88;4978232;28;20038;-63
2022/01/25 02:48:46;;;;;;;28.67;20.50;;;;;;;3.66;81.91;101597.63;4995618;28;20465;-63
2022/01/25 02:51:11;;;;;;;23.02;17.90;;;;;;;3.66;81.89;101589.03;4962395;28;20449;-63
2022/01/25 02:53:44;;;;;;;26.58;20.73;;;;;;;3.66;82.31;101595.06;4995354;28;20030;-63
2022/01/25 02:56:14;;;;;;;27.27;19.73;;;;;;;3.65;81.50;101592.41;4977992;28;20486;-62
2022/01/25 02:58:40;;;;;;;26.80;18.90;;;;;;;3.65;81.75;101597.53;4995092;28;20073;-63
2022/01/25 03:01:10;;;;;;;24.40;18.75;;;;;;;3.64;82.08;101603.44;4995344;28;20073;-64
2022/01/25 03:03:36;;;;;;;24.55;18.92;;;;;;;3.64;81.81;101603.44;4961515;28;20042;-63
2022/01/25 03:06:02;;;;;;;22.92;18.67;;;;;;;3.64;81.49;101600.88;4995302;28;20100;-62
2022/01/25 03:08:31;;;;;;;23.88;18.67;;;;;;;3.64;82.15;101608.56;4977707;28;20406;-63
2022/01/25 03:11:03;;;;;;;25.02;18.52;;;;;;;3.63;82.29;101607.69;4977443;28;20038;-62
2022/01/25 03:13:34;;;;;;;24.33;19.27;;;;;;;3.63;81.97;101599.09;4961855;28;20551;-63
2022/01/25 03:16:17;;;;;;;25.42;19.35;;;;;;;3.62;81.86;101597.31;4977723;28;20138;-63
2022/01/25 03:18:47;;;;;;;26.98;19.73;;;;;;;3.61;81.81;101592.97;4995525;28;20092;-63
2022/01/25 03:21:21;;;;;;;26.42;18.50;;;;;;;3.60;81.32;101586.03;4961537;28;20501;-63
2022/01/25 03:23:53;;;;;;;23.63;18.58;;;;;;;3.61;82.21;101593.88;4977667;28;20129;-63
2022/01/25 03:26:28;;;;;;;23.83;17.85;;;;;;;3.61;81.67;101600.66;4995086;28;20074;-63
2022/01/25 03:28:56;;;;;;;22.30;16.33;;;;;;;3.59;81.98;101595.44;4994960;28;20102;-63
2022/01/25 03:31:27;;;;;;;22.48;16.67;;;;;;;3.60;81.77;101593.75;4995023;28;20034;-63
2022/01/25 03:33:57;;;;;;;26.17;19.98;;;;;;;3.60;81.90;101597.22;4994755;28;20204;-63
2022/01/25 03:36:26;;;;;;;24.83;18.63;;;;;;;3.61;81.42;101603.22;4962073;28;20525;-63
2022/01/25 03:38:58;;;;;;;21.80;16.63;;;;;;;3.58;81.64;101593.66;4994429;28;20030;-63
2022/01/25 03:41:26;;;;;;;22.58;17.92;;;;;;;3.60;81.72;101598.88;4977334;28;20402;-62
2022/01/25 03:43:57;;;;;;;21.75;18.15;;;;;;;3.60;81.98;101599.78;4960953;28;20061;-62
2022/01/25 03:51:49;;;;;;;24.73;18.75;;;;;;;3.57;82.23;101586.75;4994424;28;20035;-63
2022/01/25 03:54:23;;;;;;;22.00;17.65;;;;;;;3.58;82.09;101590.22;4976955;28;20050;-63
2022/01/25 03:56:49;;;;;;;21.20;17.33;;;;;;;3.55;81.86;101585.75;4960870;28;20034;-63
2022/01/25 03:59:17;;;;;;;21.60;17.15;;;;;;;3.54;81.58;101591.66;4994723;28;20125;-63
2022/01/25 04:01:43;;;;;;;20.42;16.67;;;;;;;3.54;81.89;101586.53;4976846;28;20049;-63
2022/01/25 04:04:21;;;;;;;19.33;16.58;;;;;;;3.55;82.05;101587.44;4976820;28;20034;-63
2022/01/25 04:06:51;;;;;;;19.23;16.23;;;;;;;3.55;81.62;101577.16;4994364;28;20042;-62
2022/01/25 04:09:16;;;;;;;21.35;17.05;;;;;;;3.55;81.76;101572.03;4994193;28;20088;-64
2022/01/25 04:11:47;;;;;;;20.77;16.70;;;;;;;3.54;81.73;101571.13;4994045;28;20514;-63
2022/01/25 04:14:18;;;;;;;21.30;16.80;;;;;;;3.52;81.37;101567.56;4977533;28;20182;-63
2022/01/25 04:16:59;;;;;;;18.80;16.63;;;;;;;3.53;82.18;101561.66;4993969;28;20073;-63
2022/01/25 04:19:58;;;;;;;21.25;16.27;;;;;;;3.51;81.95;101560.66;4976823;28;20034;-63
2022/01/25 04:25:15;;;;;;;21.80;15.98;;;;;;;3.49;81.58;101560.56;4994283;28;20125;-63
2022/01/25 04:27:43;;;;;;;20.35;17.10;;;;;;;3.48;82.08;101551.09;4960676;28;20038;-64
2022/01/25 04:30:17;;;;;;;21.67;17.15;;;;;;;3.48;82.09;101552.78;4976935;28;20044;-64
2022/01/25 04:33:17;;;;;;;20.73;16.38;;;;;;;3.48;81.91;101555.34;4977283;28;20470;-63
2022/01/25 04:35:56;;;;;;;18.70;15.45;;;;;;;3.48;82.16;101550.22;4976733;28;20035;-63
2022/01/25 04:49:30;;;;;;;20.55;16.20;;;;;;;3.47;81.76;101551.00;4994095;28;20437;-64
2022/01/25 04:52:09;;;;;;;19.38;16.55;;;;;;;3.48;81.51;101557.91;4993786;28;20042;-63
2022/01/25 04:55:11;;;;;;;19.90;16.33;;;;;;;3.47;82.03;101548.44;4993846;28;20133;-63
2022/01/25 05:00:16;;;;;;;;;;;;;;;3.46;81.56;101559.47;4977163;28;20101;-63
2022/01/25 05:02:57;;;;;;;20.02;16.20;;;;;;;3.45;81.94;101555.13;4960237;28;20001;-63
2022/01/25 05:05:36;;;;;;;18.17;15.43;;;;;;;3.45;81.42;101562.81;4993764;28;20038;-62
2022/01/25 05:08:20;;;;;;;19.33;15.65;;;;;;;3.44;81.63;101559.34;4976359;28;20552;-64
2022/01/25 05:11:02;;;;;;;17.73;15.33;;;;;;;3.44;82.22;101553.34;4993571;28;20034;-62
2022/01/25 05:13:44;;;;;;;20.55;15.82;;;;;;;3.43;81.71;101559.25;4993789;28;20061;-62
2022/01/25 05:16:29;;;;;;;20.00;16.02;;;;;;;3.44;82.04;101558.47;4976268;28;20078;-62
2022/01/25 05:24:40;;;;;;;20.52;15.70;;;;;;;3.44;81.65;101551.66;4993618;28;20089;-63
2022/01/25 05:27:11;;;;;;;21.83;16.38;;;;;;;3.44;81.94;101546.53;4993994;28;20034;-63
2022/01/25 05:29:42;;;;;;;19.27;16.40;;;;;;;3.45;82.32;101544.88;4993688;28;20042;-63
2022/01/25 05:32:13;;;;;;;20.58;15.93;;;;;;;3.44;81.77;101548.22;4960960;28;20053;-63
2022/01/25 05:34:44;;;;;;;22.20;18.52;;;;;;;3.44;81.88;101548.22;4963459;28;20041;-62
2022/01/25 05:37:15;;;;;;;21.02;16.30;;;;;;;3.43;82.29;101549.88;4979519;28;20113;-63
2022/01/25 05:39:46;;;;;;;19.02;16.48;;;;;;;3.43;81.83;101551.56;4963550;28;20038;-64
2022/01/25 05:42:46;;;;;;;20.27;16.95;;;;;;;3.43;81.85;101549.00;4963440;28;20038;-63
2022/01/25 05:47:44;;;;;;;19.08;16.13;;;;;;;3.41;82.35;101551.47;4979147;28;20048;-63
2022/01/25 05:50:19;;;;;;;21.10;15.90;;;;;;;3.42;81.48;101554.91;4979678;28;20034;-63
2022/01/25 05:52:53;;;;;;;22.20;16.83;;;;;;;3.40;82.02;101552.25;4979634;28;20042;-64
2022/01/25 05:55:26;;;;;;;22.27;16.67;;;;;;;3.41;81.83;101553.13;4996980;28;20030;-64
2022/01/25 05:58:00;;;;;;;23.77;16.75;;;;;;;3.39;81.82;101553.03;4996507;28;20038;-63
2022/01/25 06:00:33;;;;;;;21.08;16.75;;;;;;;3.40;81.48;101559.03;4962894;28;20046;-63
2022/01/25 06:03:04;;;;;;;24.95;18.80;;;;;;;3.40;82.27;101559.03;4963168;28;20070;-62
2022/01/25 06:05:37;;;;;;;23.13;16.83;;;;;;;3.40;81.81;101562.50;4996442;28;20074;-62
2022/01/25 06:08:05;;;;;;;22.10;16.10;;;;;;;3.38;82.07;101553.81;4979263;28;20132;-63
2022/01/25 06:10:37;;;;;;;22.92;17.65;;;;;;;3.39;82.22;101557.25;4978945;28;20042;-64
2022/01/25 06:13:10;;;;;;;26.83;18.58;;;;;;;3.38;82.41;101551.25;4996764;28;20034;-63
2022/01/25 06:15:38;;;;;;;21.13;17.42;;;;;;;3.37;82.08;101544.34;4962901;28;20037;-63
2022/01/25 06:18:10;;;;;;;20.42;16.58;;;;;;;3.38;81.87;101550.34;4962574;28;20493;-63
2022/01/25 06:20:43;;;;;;;22.65;17.13;;;;;;;3.37;81.62;101551.13;4962744;28;20038;-63
2022/01/25 06:23:15;;;;;;;19.95;15.63;;;;;;;3.37;81.99;101558.81;4996032;28;20038;-63
2022/01/25 06:25:41;;;;;;;20.85;17.13;;;;;;;3.37;81.91;101558.81;4963446;28;20046;-63
2022/01/25 06:28:07;;;;;;;23.60;16.88;;;;;;;3.37;81.43;101562.28;4978522;28;20496;-62
2022/01/25 06:30:37;;;;;;;22.77;17.88;;;;;;;3.37;81.83;101554.59;4962365;28;20089;-63
2022/01/25 06:33:09;;;;;;;19.73;14.80;;;;;;;3.35;81.68;101557.03;4996120;28;20038;-63
2022/01/25 06:35:42;;;;;;;19.30;16.08;;;;;;;3.36;81.72;101557.94;4978589;28;20100;-63
2022/01/25 06:38:10;;;;;;;19.53;15.93;;;;;;;3.36;82.11;101557.94;4962891;28;20133;-63
2022/01/25 06:40:38;;;;;;;20.80;16.15;;;;;;;3.34;82.18;101555.28;4996364;28;20042;-62
2022/01/25 06:43:13;;;;;;;21.27;16.33;;;;;;;3.34;81.49;101560.41;4962357;28;20515;-62
2022/01/25 06:45:55;;;;;;;18.95;15.07;;;;;;;3.33;81.91;101566.31;4961748;28;20397;-62
2022/01/25 06:48:26;;;;;;;18.38;15.13;;;;;;;3.33;81.81;101558.63;4995571;28;20035;-62
2022/01/25 06:50:57;;;;;;;21.95;17.73;;;;;;;3.32;81.62;101561.97;4961834;28;20039;-63
2022/01/25 06:53:26;;;;;;;20.38;16.02;;;;;;;3.33;82.07;101566.31;4961985;28;20502;-62
2022/01/25 06:56:04;;;;;;;20.08;16.83;;;;;;;3.33;82.11;101560.28;4961850;28;20060;-63
2022/01/25 06:58:34;;;;;;;17.13;15.02;;;;;;;3.32;81.92;101567.09;4995215;28;20074;-64
2022/01/25 07:01:02;;;;;;;19.38;15.75;;;;;;;3.31;81.92;101554.16;4961763;28;20387;-64
2022/01/25 07:03:39;;;;;;;19.33;15.75;;;;;;;3.31;81.43;101559.28;4961345;28;20046;-63
2022/01/25 07:06:14;;;;;;;20.73;17.08;;;;;;;3.29;81.75;101556.63;4961408;28;20050;-62
2022/01/25 07:08:45;;;;;;;19.50;15.15;;;;;;;3.28;81.99;101552.28;4961640;28;20035;-63
2022/01/25 07:11:14;;;;;;;19.80;15.30;;;;;;;3.28;82.21;101562.53;4961540;28;20031;-65
2022/01/25 07:13:40;;;;;;;19.27;16.00;;;;;;;3.29;81.61;101565.97;4961833;28;20031;-63
2022/01/25 07:16:12;;;;;;;19.23;16.45;;;;;;;3.28;81.53;101559.97;4994831;28;20409;-62
2022/01/25 07:18:43;;;;;;;19.23;16.50;;;;;;;3.26;82.08;101558.97;4995575;28;20116;-63
2022/01/25 07:21:14;;;;;;;18.58;14.48;;;;;;;3.26;81.96;101565.78;4961683;28;20037;-62
2022/01/25 07:23:45;;;;;;;18.20;13.93;;;;;;;3.26;82.21;101570.91;4961402;28;20042;-64
2022/01/25 07:26:16;;;;;;;22.45;16.05;;;;;;;3.25;81.69;101572.56;4961211;28;20030;-63
2022/01/25 07:28:47;;;;;;;19.52;14.63;;;;;;;3.25;81.74;101569.13;4961919;28;20454;-63
2022/01/25 07:31:20;;;;;;;17.45;13.85;;;;;;;3.25;81.97;101577.69;4995100;28;20035;-63
2022/01/25 07:33:52;;;;;;;19.40;15.73;;;;;;;3.24;81.99;101570.78;4961497;28;20050;-64
2022/01/25 07:36:22;;;;;;;17.60;14.10;;;;;;;3.26;82.08;101573.47;4994890;28;20090;-64
2022/01/25 07:38:53;;;;;;;20.65;16.05;;;;;;;3.25;82.11;101572.56;4961603;28;20105;-63
2022/01/25 07:41:25;;;;;;;19.08;14.75;;;;;;;3.25;81.99;101575.13;4977482;28;20398;-63
2022/01/25 07:43:51;;;;;;;19.25;14.65;;;;;;;3.26;81.85;101576.03;4977448;28;20068;-63
2022/01/25 07:46:17;;;;;;;17.85;14.60;;;;;;;3.26;82.03;101574.34;4994557;28;20042;-63
2022/01/25 07:48:52;;;;;;;19.55;14.98;;;;;;;3.26;81.95;101578.59;4994426;28;20066;-62
2022/01/25 07:51:28;;;;;;;18.25;14.85;;;;;;;3.26;81.82;101578.59;4961152;28;20482;-63
2022/01/25 07:54:01;;;;;;;20.33;16.60;;;;;;;3.25;82.41;101575.13;4994665;28;20042;-63
2022/01/25 07:56:31;;;;;;;18.65;15.32;;;;;;;3.24;82.16;101568.22;4993535;28;20038;-64
2022/01/25 07:59:05;;;;;;;20.80;16.52;;;;;;;3.24;82.10;101581.03;4977177;28;20104;-63
2022/01/25 08:01:38;;;;;;;17.90;15.05;;;;;;;3.24;82.18;101583.59;4960457;28;20054;-63
2022/01/25 08:04:07;;;;;;;17.95;14.02;;;;;;;3.23;82.07;101586.94;4960487;28;20042;-64
2022/01/25 08:06:39;;;;;;;17.38;14.43;;;;;;;3.23;82.31;101579.25;4959948;28;20039;-63
2022/01/25 08:09:11;;;;;;;20.42;15.55;;;;;;;3.22;82.14;101579.16;4994626;28;20509;-63
2022/01/25 08:11:43;;;;;;;18.30;14.23;;;;;;;3.22;82.39;101586.84;4994568;28;20478;-63
2022/01/25 08:14:17;;;;;;;;;;;;;;;3.20;82.04;101589.28;4994608;28;20446;-63
2022/01/25 08:16:51;;;;;;;17.77;13.57;;;;;;;3.19;81.96;101588.41;4959786;28;19921;-63
2022/01/25 08:19:18;;;;;;;18.02;12.98;;;;;;;3.18;81.98;101588.31;4976943;28;20513;-63
2022/01/25 08:21:45;;;;;;;18.63;15.38;;;;;;;3.19;82.04;101590.09;4960647;28;20038;-63
2022/01/25 08:24:25;;;;;;;18.70;14.80;;;;;;;3.18;81.52;101599.44;4960534;28;20482;-63
2022/01/25 08:27:02;;;;;;;14.77;12.75;;;;;;;3.17;81.74;101596.78;4976954;28;20043;-63
2022/01/25 08:29:39;;;;;;;18.15;14.93;;;;;;;3.18;81.93;101602.00;4960920;28;20132;-63
2022/01/25 08:32:10;;;;;;;16.70;13.40;;;;;;;3.18;82.20;101599.44;4960640;28;20367;-62
2022/01/25 08:34:41;;;;;;;17.50;13.95;;;;;;;3.18;82.20;101601.13;4994179;28;20062;-62
2022/01/25 08:37:12;;;;;;;18.40;15.30;;;;;;;3.18;82.16;101599.44;4960166;28;20042;-62
2022/01/25 08:39:44;;;;;;;18.80;14.25;;;;;;;3.18;81.82;101602.00;4960333;28;20524;-62
2022/01/25 08:42:15;;;;;;;16.38;13.32;;;;;;;3.15;82.01;101595.78;4993966;28;20129;-62
2022/01/25 08:44:43;;;;;;;17.65;13.15;;;;;;;3.17;81.91;101612.16;4960928;28;20057;-63
2022/01/25 08:47:12;;;;;;;19.50;14.23;;;;;;;3.15;81.84;101606.03;4976370;28;20478;-62
2022/01/25 08:49:41;;;;;;;15.93;12.65;;;;;;;3.15;82.13;101604.34;4993739;28;20489;-63
2022/01/25 08:52:07;;;;;;;16.75;13.93;;;;;;;3.14;81.68;101602.56;4993618;28;20117;-63
2022/01/25 08:54:38;;;;;;;18.45;14.75;;;;;;;3.14;82.23;101597.44;4994269;28;20077;-63
2022/01/25 08:57:06;;;;;;;20.13;14.52;;;;;;;3.14;81.87;101602.56;4960848;28;20047;-63
2022/01/25 08:59:37;;;;;;;19.27;13.68;;;;;;;3.13;82.24;101602.47;4960281;28;20554;-64
2022/01/25 09:02:08;;;;;;;15.77;12.82;;;;;;;3.13;81.90;101605.91;4960098;28;20058;-63
2022/01/25 09:04:40;;;;;;;16.38;13.30;;;;;;;3.11;82.03;101601.47;4960891;28;20065;-64
2022/01/25 09:07:13;;;;;;;16.55;13.50;;;;;;;3.12;81.71;101605.81;4994428;28;20045;-64
2022/01/25 09:09:43;;;;;;;18.57;15.63;;;;;;;3.12;81.93;101610.94;4997625;28;20034;-63
2022/01/25 09:12:14;;;;;;;15.80;12.98;;;;;;;3.10;81.48;101603.16;4963640;28;20041;-63
2022/01/25 09:14:50;;;;;;;17.58;13.88;;;;;;;3.11;81.92;101607.50;4979986;28;20122;-64
2022/01/25 09:17:21;;;;;;;17.92;14.13;;;;;;;3.10;82.02;101605.69;4997523;28;20045;-63
2022/01/25 09:19:53;;;;;;;18.63;14.93;;;;;;;3.10;81.82;101602.22;4997140;28;20045;-64
2022/01/25 09:22:23;;;;;;;17.48;13.77;;;;;;;3.11;82.13;101610.06;4997319;28;20030;-63
2022/01/25 09:24:57;;;;;;;15.90;14.23;;;;;;;3.11;82.01;101611.69;4963650;28;20100;-63
2022/01/25 09:27:24;;;;;;;16.85;14.23;;;;;;;3.10;81.86;101609.91;4963560;28;20486;-63
2022/01/25 09:30:00;;;;;;;15.57;13.90;;;;;;;3.11;82.20;101611.69;4980189;28;20038;-63
2022/01/25 09:32:36;;;;;;;15.65;12.93;;;;;;;3.09;81.95;101609.03;4980595;28;20038;-62
2022/01/25 09:35:07;;;;;;;16.57;13.47;;;;;;;3.08;81.72;101607.25;4963688;28;20034;-63
2022/01/25 09:37:38;;;;;;;17.95;14.73;;;;;;;3.08;82.12;101608.91;4996936;28;20792;-63
2022/01/25 09:40:05;;;;;;;17.50;13.70;;;;;;;3.07;81.97;101618.28;4963606;28;20045;-63
2022/01/25 09:42:33;;;;;;;15.80;13.35;;;;;;;3.07;81.64;101612.25;4979319;28;20117;-63
2022/01/25 09:45:02;;;;;;;18.25;14.80;;;;;;;3.05;81.80;101619.84;4962975;28;20026;-63
2022/01/25 09:47:36;;;;;;;15.75;14.07;;;;;;;3.05;81.74;101610.47;4996549;28;20045;-63
2022/01/25 09:50:13;;;;;;;17.83;14.80;;;;;;;3.07;81.99;101622.50;4963445;28;20073;-62
2022/01/25 09:52:48;;;;;;;17.00;13.05;;;;;;;3.05;81.96;101623.28;4996927;28;20045;-62
2022/01/25 09:55:27;;;;;;;16.75;13.02;;;;;;;3.03;82.03;101627.44;4997084;28;20054;-63
2022/01/25 09:57:59;;;;;;;16.63;13.18;;;;;;;3.03;82.07;101629.09;4996544;28;20126;-62
2022/01/25 10:00:31;;;;;;;16.33;13.57;;;;;;;3.03;82.22;101632.56;4963017;28;20441;-63
2022/01/25 10:05:47;;;;;;;18.02;14.43;;;;;;;3.03;81.85;101647.94;4996278;28;20030;-63
2022/01/25 10:08:25;;;;;;;19.52;14.30;;;;;;;3.04;81.83;101649.69;4979270;28;20093;-63
2022/01/25 10:11:05;;;;;;;18.05;13.68;;;;;;;3.02;81.88;101651.28;4996275;28;20034;-62
2022/01/25 10:13:37;;;;;;;17.45;13.20;;;;;;;3.03;81.99;101652.16;4963128;28;20035;-62
2022/01/25 10:16:10;;;;;;;16.15;13.35;;;;;;;3.02;81.94;101658.94;4979334;28;20097;-63
2022/01/25 10:18:46;;;;;;;18.88;14.65;;;;;;;3.00;81.55;101663.06;4962250;28;20041;-63
2022/01/25 10:21:19;;;;;;;19.65;14.93;;;;;;;2.98;81.90;101662.06;4979186;28;20041;-63
2022/01/25 10:24:11;;;;;;;15.95;12.82;;;;;;;2.97;81.79;101659.38;4962328;28;20043;-63
2022/01/25 10:26:59;;;;;;;19.95;15.15;;;;;;;2.97;82.01;101657.72;4996384;28;20049;-63
2022/01/25 10:29:35;;;;;;;14.57;12.45;;;;;;;2.99;82.00;101660.38;4978703;28;20035;-63
2022/01/25 10:32:06;;;;;;;17.17;14.13;;;;;;;2.98;81.65;101653.47;4962355;28;20556;-63
2022/01/25 10:34:41;;;;;;;16.77;12.75;;;;;;;3.00;82.12;101659.59;4996158;28;20150;-63
2022/01/25 10:37:15;;;;;;;15.82;12.70;;;;;;;3.00;82.02;101652.81;4978904;28;20490;-63
2022/01/25 10:39:46;;;;;;;19.42;14.88;;;;;;;2.99;82.22;101653.59;4962520;28;20038;-64
2022/01/25 10:42:24;;;;;;;17.08;14.20;;;;;;;2.99;81.85;101647.56;4978470;28;20042;-63
2022/01/25 10:44:56;;;;;;;19.35;15.05;;;;;;;2.99;82.32;101655.25;4962240;28;20042;-63
2022/01/25 10:47:50;;;;;;;17.50;14.75;;;;;;;2.99;81.71;101647.56;4995314;28;20049;-63
2022/01/25 10:50:42;;;;;;;16.40;14.32;;;;;;;2.96;82.38;101638.00;4962515;28;20042;-64
2022/01/25 10:53:16;;;;;;;18.95;14.93;;;;;;;2.96;81.93;101635.44;4977792;28;20042;-64
2022/01/25 10:55:51;;;;;;;19.45;15.68;;;;;;;2.96;81.97;101632.88;4995751;28;20034;-63
2022/01/25 10:58:17;;;;;;;18.95;15.48;;;;;;;2.96;81.96;101632.00;4978202;28;20117;-63
2022/01/25 11:00:51;;;;;;;21.90;14.88;;;;;;;2.95;82.02;101631.09;4995538;28;20046;-63
2022/01/25 11:03:32;;;;;;;21.63;15.85;;;;;;;2.95;81.65;101622.53;4995047;28;20042;-63
2022/01/25 11:06:08;;;;;;;19.95;14.77;;;;;;;2.95;81.68;101623.41;4995291;28;20034;-63
2022/01/25 11:08:36;;;;;;;26.70;17.92;;;;;;;2.95;82.08;101625.09;4995730;28;20056;-63
2022/01/25 11:11:03;;;;;;;22.65;15.15;;;;;;;2.95;81.59;101623.41;4961624;28;20049;-63
2022/01/25 11:13:37;;;;;;;19.42;14.90;;;;;;;2.96;81.91;101626.88;4995086;28;20058;-62
2022/01/25 11:16:08;;;;;;;;;;;;;;;2.95;81.91;101627.66;4978160;28;20046;-63
2022/01/25 11:18:40;;;;;;;21.90;15.50;;;;;;;2.95;81.66;101625.09;4978461;28;19919;-63
2022/01/25 11:21:13;;;;;;;24.85;16.88;;;;;;;2.94;81.99;101620.75;4961886;28;20041;-63
2022/01/25 11:23:45;;;;;;;22.45;14.75;;;;;;;2.94;82.02;101625.88;4995016;28;20039;-63
2022/01/25 11:26:15;;;;;;;24.05;15.88;;;;;;;2.94;81.91;101618.19;4977696;28;20061;-63
2022/01/25 11:28:42;;;;;;;23.77;15.60;;;;;;;2.92;82.10;101612.94;4994738;28;20417;-62
2022/01/25 11:31:21;;;;;;;25.10;16.02;;;;;;;2.94;81.57;101618.19;4994814;28;20042;-63
2022/01/25 11:33:52;;;;;;;21.08;15.60;;;;;;;2.95;81.94;101614.84;4994932;28;20041;-63
2022/01/25 11:36:26;;;;;;;24.52;16.08;;;;;;;2.94;81.79;101621.63;4994767;28;20069;-63
2022/01/25 11:38:55;;;;;;;26.67;17.70;;;;;;;2.94;82.00;101624.19;4961148;28;20577;-63
2022/01/25 11:41:25;;;;;;;26.40;17.65;;;;;;;2.95;82.17;101615.72;4961398;28;20039;-62
2022/01/25 11:44:09;;;;;;;26.17;17.17;;;;;;;2.95;81.75;101615.72;4961788;28;20038;-63
2022/01/25 11:46:39;;;;;;;24.83;16.25;;;;;;;2.94;81.45;101608.81;4994771;28;20050;-64
2022/01/25 11:49:17;;;;;;;29.52;17.52;;;;;;;2.95;81.59;101607.16;4994485;28;20042;-63
2022/01/25 11:52:13;;;;;;;27.17;17.90;;;;;;;2.93;81.64;101601.03;4977416;28;20073;-63
2022/01/25 11:54:43;;;;;;;28.48;18.90;;;;;;;2.95;81.55;101607.16;4960835;28;20038;-63
2022/01/25 11:57:16;;;;;;;27.55;18.80;;;;;;;2.94;81.98;101610.50;4977034;28;20128;-62
2022/01/25 11:59:43;;;;;;;27.40;18.02;;;;;;;2.92;82.07;101600.13;4960843;28;20042;-64
2022/01/25 12:02:09;;;;;;;33.78;20.23;;;;;;;2.95;81.71;101604.59;4960846;28;20042;-63
2022/01/25 12:04:43;;;;;;;31.95;20.08;;;;;;;2.94;81.72;101606.25;4994430;28;20437;-63
2022/01/25 12:07:23;;;;;;;;;;;;;;;2.93;82.32;101601.91;4977665;28;20047;-63
2022/01/25 12:09:52;;;;;;;30.83;17.27;;;;;;;2.94;82.09;101602.81;4976668;28;20008;-63
2022/01/25 12:12:24;;;;;;;35.65;20.75;;;;;;;2.93;81.87;101591.66;4976722;28;20030;-63
2022/01/25 12:14:58;;;;;;;37.70;21.13;;;;;;;2.95;81.94;101596.94;4976566;28;20481;-62
2022/01/25 12:17:33;;;;;;;33.58;20.90;;;;;;;2.95;82.13;101594.38;4960502;28;20027;-62
2022/01/25 12:20:03;;;;;;;35.70;21.05;;;;;;;2.96;81.93;101596.16;4960543;28;20521;-63
2022/01/25 12:22:41;;;;;;;37.70;20.63;;;;;;;2.95;81.48;101595.25;4976840;28;20042;-63
2022/01/25 12:25:17;;;;;;;31.50;18.52;;;;;;;2.95;82.18;101592.69;4976849;28;20050;-62
2022/01/25 12:27:53;;;;;;;39.03;20.98;;;;;;;2.96;81.63;101586.78;4977141;28;20042;-63
2022/01/25 12:30:31;;;;;;;38.50;21.95;;;;;;;2.97;82.17;101595.34;4960510;28;20039;-63
2022/01/25 12:33:12;;;;;;;46.55;22.52;;;;;;;2.97;81.67;101586.00;4994095;28;20074;-64
2022/01/25 12:35:40;;;;;;;36.33;20.10;;;;;;;2.97;81.99;101592.78;4960716;28;20038;-64
2022/01/25 12:38:13;;;;;;;40.33;22.15;;;;;;;2.97;81.85;101603.03;4976344;28;20042;-63
2022/01/25 12:40:56;;;;;;;42.38;22.27;;;;;;;2.98;82.22;101599.69;4960832;28;20042;-64
2022/01/25 12:43:38;;;;;;;43.70;23.05;;;;;;;2.98;81.62;101599.69;4997011;28;20042;-63
2022/01/25 12:46:06;;;;;;;44.33;23.08;;;;;;;2.98;81.94;101590.34;4964261;28;20084;-63
2022/01/25 12:48:40;;;;;;;44.60;22.65;;;;;;;2.98;81.82;101590.34;4997623;28;20084;-63
2022/01/25 12:51:12;;;;;;;44.25;23.02;;;;;;;2.98;82.07;101590.34;4980773;28;20038;-62
2022/01/25 12:53:42;;;;;;;46.00;22.50;;;;;;;2.99;81.81;101592.13;4964359;28;20038;-63
2022/01/25 12:56:23;;;;;;;39.55;21.20;;;;;;;2.99;82.10;101583.53;4997776;28;20486;-63
2022/01/25 12:58:56;;;;;;;42.53;22.55;;;;;;;2.98;81.54;101582.66;4980111;28;20430;-62
2022/01/25 13:01:24;;;;;;;45.55;22.23;;;;;;;2.99;82.14;101587.00;4964069;28;20034;-63
2022/01/25 13:03:59;;;;;;;45.45;22.70;;;;;;;2.98;82.11;101580.09;4997698;28;20031;-63
2022/01/25 13:06:39;;;;;;;44.13;22.85;;;;;;;2.98;81.79;101572.41;4980179;28;20045;-63
2022/01/25 13:09:13;;;;;;;39.70;23.02;;;;;;;2.98;81.75;101567.28;4997407;28;20030;-62
2022/01/25 13:17:02;;;;;;;43.97;22.92;;;;;;;2.97;81.55;101562.03;4979806;28;20046;-63
2022/01/25 13:19:43;;;;;;;46.65;23.33;;;;;;;2.97;81.73;101552.69;4980027;28;20421;-63
2022/01/25 13:22:15;;;;;;;44.45;23.83;;;;;;;2.97;82.18;101552.69;4997463;28;20121;-63
2022/01/25 13:24:58;;;;;;;51.58;25.77;;;;;;;2.97;82.13;101554.34;4997143;28;20038;-63
2022/01/25 13:27:30;;;;;;;51.53;25.17;;;;;;;2.97;81.73;101550.13;4963759;28;20096;-63